Aérodrome :
LOGIN :

S'inscrire | Disclaimer

   EN    FR    IT 

 










Légende :    VFR   VFR Marginal   IFR   IFR Intensif   IFR Très Intensif
Visi : 
Plafond : 
>= 8 km
>= 3000ft
5 à 8 km
1000 à 3000 ft
1500m à 5 km
500 à 1000 ft
800 à 1500m
200 à 500 ft
< 800m
< 200 ft
Symboles :   Orages  Brouillard  Fortes neiges  Fortes précipitations  Vent > 20 kt
SIGMETs :   Divers  Orages  Givrage  Turbulence  Onde Orograph.  Cendres Volcan.






- Altitude de l'aérodrome : 7 ft
- Code IATA : VCE


LIPZ - Marco Polo Int. Venezia

DERNIER METAR :
  • 230650Z 00000KT CAVOK 14/14 Q1020 NOSIG

METARs EXPIRÉS :
  • 230620Z 36003KT 320V050 9999 MIFG NSC 14/14 Q1020 NOSIG
  • 230550Z 34003KT 310V030 9999 MIFG NSC 14/14 Q1020 NOSIG
  • 230520Z 33003KT 290V010 9999 MIFG NSC 13/13 Q1020 NOSIG
  • 230450Z 32005KT 310V020 9999 MIFG NSC 14/14 Q1020 NOSIG
  • 230420Z 34004KT 310V030 6000 BCFG NSC 14/14 Q1020 BECMG 0200 FG

TAF COR TAF LIPZ
Valide du 23 à 06h jusqu'au 24 à 12h UTC


230545Z 2306/2412 VRB05KT 8000 FEW030
TEMPO 2306/2309 0400 FG OVC001
BECMG 2316/2319 3000 BR



MET'MAP, la Météo Aéronautique d'un coup d'oeil ! - Copyright ORBIFLY Décembre 2007 - Disclaimer

ORBIFLY MET'MAP TEAM :

Programmation & Développement : Alexandra Zaïnal
Conception & Développement : Baudouin d'Aumeries
Co-Programmation & Développement : Marc-Olivier Méhu
Soutien technique & logistique : Manuel Goepfert

Contact : metmap@orbifly.com




SOURCES & CREDITS :

   NOAA